KAVX/AVX METAR and TAF weather

Enter ICAO airport designator
Station Type Date Time Source
KAVX METAR 2018/10/19 15:51 UTC NOAA

KAVX 191551Z AUTO 07007KT 10SM CLR 24/00 A3009 RMK AO2 SLP162 T02440000


Station Type Date Time Source
KAVX Decoded METAR 2018/10/19 15:51 UTC NOAA

AVALON CATALINA AIRPORT, CA, United States (KAVX) 33-24N 118-25W 482M
Oct 19, 2018 - 11:51 AM EDT / 2018.10.19 1551 UTC
Wind: from the ENE (070 degrees) at 8 MPH (7 KT):0
Visibility: 10 mile(s):0
Sky conditions: clear
Temperature: 75.9 F (24.4 C)
Dew Point: 32.0 F (0.0 C)
Relative Humidity: 19%
Pressure (altimeter): 30.09 in. Hg (1018 hPa)
ob: KAVX 191551Z AUTO 07007KT 10SM CLR 24/00 A3009 RMK AO2 SLP162 T02440000
cycle: 16

Station Type Date Time Source
KAVX TAF UTC NOAA

Error!


Example: see airport list